Time;durP1;ratioP1;P1;durP2;ratioP2;P2;SDS_P1;SDS_P2;PMS_P1;PMS_P2;Temp;Humidity;BMP_temperature;BMP_pressure;BME280_temperature;BME280_humidity;BME280_pressure;Samples;Min_cycle;Max_cycle;Signal;HPM_P1;HPM_P2
2023/12/16 00:01:33;;;;;;;6.03;2.10;;;;;;;;;;4908052;29;20067;-79
2023/12/16 00:04:00;;;;;;;7.20;2.47;;;;;;;;;;4924194;29;20611;-79
2023/12/16 00:06:26;;;;;;;10.60;3.47;;;;;;;;;;4938329;29;20051;-79
2023/12/16 00:08:52;;;;;;;10.63;2.63;;;;;;;;;;4930652;29;20488;-80
2023/12/16 00:11:18;;;;;;;11.00;2.85;;;;;;;;;;4924715;29;20039;-79
2023/12/16 00:13:44;;;;;;;7.97;2.60;;;;;;;;;;4926302;29;20110;-79
2023/12/16 00:16:10;;;;;;;8.68;2.30;;;;;;;;;;4904001;29;20083;-80
2023/12/16 00:18:37;;;;;;;7.70;2.13;;;;;;;;;;4904257;29;20074;-79
2023/12/16 00:21:03;;;;;;;5.32;2.33;;;;;;;;;;4920792;29;20119;-79
2023/12/16 00:23:30;;;;;;;9.32;3.15;;;;;;;;;;4895792;29;20036;-79
2023/12/16 00:25:56;;;;;;;9.90;1.90;;;;;;;;;;4903910;29;20051;-79
2023/12/16 00:28:22;;;;;;;10.40;2.38;;;;;;;;;;4920627;29;20039;-79
2023/12/16 00:30:48;;;;;;;7.40;2.42;;;;;;;;;;4938557;29;20040;-80
2023/12/16 00:33:14;;;;;;;11.75;2.45;;;;;;;;;;4938299;29;20256;-79
2023/12/16 00:35:40;;;;;;;7.78;2.45;;;;;;;;;;4937910;29;20082;-79
2023/12/16 00:38:06;;;;;;;7.80;2.60;;;;;;;;;;4906104;29;20083;-80
2023/12/16 00:40:32;;;;;;;15.20;2.83;;;;;;;;;;4936598;29;20062;-79
2023/12/16 00:43:00;;;;;;;4.10;1.80;;;;;;;;;;4938137;29;20072;-79
2023/12/16 00:45:26;;;;;;;7.53;2.40;;;;;;;;;;4934757;29;20175;-80
2023/12/16 00:47:52;;;;;;;7.80;2.22;;;;;;;;;;4921586;29;20047;-79
2023/12/16 00:50:18;;;;;;;9.23;2.33;;;;;;;;;;4940108;29;20047;-79
2023/12/16 00:52:44;;;;;;;11.27;2.22;;;;;;;;;;4938748;28;20051;-80
2023/12/16 00:55:10;;;;;;;10.38;2.45;;;;;;;;;;4931116;29;20512;-79
2023/12/16 00:57:38;;;;;;;8.70;2.00;;;;;;;;;;4937923;29;20503;-80
2023/12/16 01:00:04;;;;;;;9.75;2.53;;;;;;;;;;4937588;29;20031;-80
2023/12/16 01:02:30;;;;;;;6.97;2.08;;;;;;;;;;4937743;29;20548;-79
2023/12/16 01:04:56;;;;;;;9.95;2.20;;;;;;;;;;4891662;29;20046;-79
2023/12/16 01:07:22;;;;;;;10.05;3.33;;;;;;;;;;4919761;29;20044;-79
2023/12/16 01:09:50;;;;;;;11.05;2.30;;;;;;;;;;4935864;29;20369;-78
2023/12/16 01:12:16;;;;;;;8.55;3.08;;;;;;;;;;4937639;29;20047;-80
2023/12/16 01:14:43;;;;;;;8.27;2.28;;;;;;;;;;4925530;29;20475;-79
2023/12/16 01:17:09;;;;;;;8.68;2.10;;;;;;;;;;4937022;29;20110;-79
2023/12/16 01:19:35;;;;;;;7.88;1.85;;;;;;;;;;4921300;29;20122;-80
2023/12/16 01:22:01;;;;;;;9.20;2.35;;;;;;;;;;4936351;29;20082;-80
2023/12/16 01:24:27;;;;;;;5.13;1.88;;;;;;;;;;4937778;29;20039;-80
2023/12/16 01:26:53;;;;;;;6.57;1.80;;;;;;;;;;4937586;29;20043;-80
2023/12/16 01:29:19;;;;;;;10.77;2.35;;;;;;;;;;4937618;29;20047;-80
2023/12/16 01:31:45;;;;;;;4.63;1.92;;;;;;;;;;4937118;29;20075;-79
2023/12/16 01:34:11;;;;;;;7.03;2.20;;;;;;;;;;4937323;29;20488;-79
2023/12/16 01:36:37;;;;;;;6.80;1.88;;;;;;;;;;4926702;29;20126;-79
2023/12/16 01:39:03;;;;;;;10.65;2.05;;;;;;;;;;4918522;29;20036;-80
2023/12/16 01:41:29;;;;;;;6.05;1.90;;;;;;;;;;4905700;29;20040;-79
2023/12/16 01:43:56;;;;;;;6.90;2.05;;;;;;;;;;4918547;29;20399;-74
2023/12/16 01:46:22;;;;;;;6.72;2.00;;;;;;;;;;4924833;29;20050;-74
2023/12/16 01:48:48;;;;;;;7.20;2.13;;;;;;;;;;4936126;29;20047;-75
2023/12/16 01:51:15;;;;;;;9.27;2.05;;;;;;;;;;4918688;29;20043;-74
2023/12/16 01:53:41;;;;;;;5.30;2.15;;;;;;;;;;4928215;29;20039;-75
2023/12/16 01:56:08;;;;;;;6.07;1.75;;;;;;;;;;4937169;29;20140;-74
2023/12/16 01:58:35;;;;;;;8.40;2.20;;;;;;;;;;4936730;29;20479;-75
2023/12/16 02:01:01;;;;;;;15.32;3.25;;;;;;;;;;4936398;29;20039;-75
2023/12/16 02:03:28;;;;;;;7.95;2.22;;;;;;;;;;4936998;29;20094;-75
2023/12/16 02:05:55;;;;;;;11.43;2.65;;;;;;;;;;4937226;29;20083;-75
2023/12/16 02:08:21;;;;;;;10.45;2.10;;;;;;;;;;4937056;29;20039;-75
2023/12/16 02:10:47;;;;;;;8.48;2.20;;;;;;;;;;4929683;29;20047;-75
2023/12/16 02:13:13;;;;;;;5.95;2.40;;;;;;;;;;4919091;29;20036;-75
2023/12/16 02:15:40;;;;;;;8.25;2.03;;;;;;;;;;4934162;29;20074;-75
2023/12/16 02:18:06;;;;;;;7.05;1.88;;;;;;;;;;4902425;29;20131;-74
2023/12/16 02:20:32;;;;;;;8.10;2.13;;;;;;;;;;4919166;28;20484;-74
2023/12/16 02:22:58;;;;;;;11.57;2.20;;;;;;;;;;4905913;29;20074;-75
2023/12/16 02:25:24;;;;;;;8.57;2.67;;;;;;;;;;4933882;29;20062;-75
2023/12/16 02:27:50;;;;;;;12.15;2.33;;;;;;;;;;4936813;28;20613;-75
2023/12/16 02:30:20;;;;;;;6.90;1.88;;;;;;;;;;4939999;29;20066;-75
2023/12/16 02:32:46;;;;;;;14.88;2.55;;;;;;;;;;4940433;28;20051;-74
2023/12/16 02:35:12;;;;;;;7.63;2.22;;;;;;;;;;4940188;29;20043;-74
2023/12/16 02:37:38;;;;;;;10.45;2.28;;;;;;;;;;4940368;29;20043;-74
2023/12/16 02:40:05;;;;;;;8.63;2.05;;;;;;;;;;4931015;29;20039;-75
2023/12/16 02:42:31;;;;;;;8.35;2.42;;;;;;;;;;4922781;29;20050;-75
2023/12/16 02:44:57;;;;;;;13.32;3.22;;;;;;;;;;4936649;29;20392;-75
2023/12/16 02:47:23;;;;;;;9.18;2.13;;;;;;;;;;4940567;29;20395;-75
2023/12/16 02:49:49;;;;;;;12.40;3.03;;;;;;;;;;4940060;29;20043;-75
2023/12/16 02:52:15;;;;;;;13.93;2.90;;;;;;;;;;4923133;29;20051;-74
2023/12/16 02:54:41;;;;;;;9.32;1.88;;;;;;;;;;4938191;29;20050;-75
2023/12/16 02:57:07;;;;;;;10.38;2.40;;;;;;;;;;4927442;29;20067;-75
2023/12/16 02:59:33;;;;;;;8.38;2.00;;;;;;;;;;4921007;29;20126;-74
2023/12/16 03:01:59;;;;;;;9.70;2.17;;;;;;;;;;4939312;28;20066;-75
2023/12/16 03:04:25;;;;;;;7.13;2.17;;;;;;;;;;4924272;29;20098;-74
2023/12/16 03:06:52;;;;;;;9.13;2.10;;;;;;;;;;4925266;29;20185;-74
2023/12/16 03:09:18;;;;;;;8.75;1.98;;;;;;;;;;4920956;29;20459;-74
2023/12/16 03:11:44;;;;;;;15.00;3.40;;;;;;;;;;4934442;29;20039;-74
2023/12/16 03:14:10;;;;;;;8.35;2.13;;;;;;;;;;4939686;29;20039;-74
2023/12/16 03:16:36;;;;;;;10.80;2.45;;;;;;;;;;4939120;28;20145;-74
2023/12/16 03:19:02;;;;;;;12.65;2.10;;;;;;;;;;4939361;28;20130;-74
2023/12/16 03:21:30;;;;;;;11.70;2.88;;;;;;;;;;4901105;29;20058;-74
2023/12/16 03:23:56;;;;;;;14.60;2.55;;;;;;;;;;4939566;29;20035;-74
2023/12/16 03:26:22;;;;;;;13.27;3.13;;;;;;;;;;4938982;29;20078;-74
2023/12/16 03:28:48;;;;;;;16.05;2.58;;;;;;;;;;4939606;29;20053;-74
2023/12/16 03:31:14;;;;;;;8.38;2.70;;;;;;;;;;4938612;29;20043;-74
2023/12/16 03:33:40;;;;;;;14.32;2.95;;;;;;;;;;4939365;29;20095;-74
2023/12/16 03:36:09;;;;;;;13.32;2.70;;;;;;;;;;4941549;29;20043;-75
2023/12/16 03:38:35;;;;;;;9.70;2.83;;;;;;;;;;4908366;29;20487;-75
2023/12/16 03:41:01;;;;;;;13.35;3.13;;;;;;;;;;4906809;29;20045;-75
2023/12/16 03:43:28;;;;;;;15.18;2.55;;;;;;;;;;4939540;29;20053;-75
2023/12/16 03:45:54;;;;;;;15.05;2.42;;;;;;;;;;4939264;28;20479;-74
2023/12/16 03:48:20;;;;;;;13.23;2.80;;;;;;;;;;4938773;29;20050;-74
2023/12/16 03:50:46;;;;;;;9.48;2.60;;;;;;;;;;4938988;29;20082;-75
2023/12/16 03:53:12;;;;;;;15.55;2.78;;;;;;;;;;4923304;29;20051;-74
2023/12/16 03:55:38;;;;;;;9.30;2.40;;;;;;;;;;4939417;29;20039;-75
2023/12/16 03:58:04;;;;;;;11.40;2.63;;;;;;;;;;4938440;29;20051;-74
2023/12/16 04:00:30;;;;;;;9.88;2.28;;;;;;;;;;4938665;28;20043;-74
2023/12/16 04:02:56;;;;;;;12.30;2.75;;;;;;;;;;4935122;29;20052;-75
2023/12/16 04:05:22;;;;;;;11.27;3.80;;;;;;;;;;4920048;29;20051;-75
2023/12/16 04:07:48;;;;;;;15.77;3.20;;;;;;;;;;4934974;29;20468;-75
2023/12/16 04:10:14;;;;;;;11.45;2.40;;;;;;;;;;4928741;29;20048;-75
2023/12/16 04:12:41;;;;;;;13.50;2.40;;;;;;;;;;4922251;29;20408;-75
2023/12/16 04:15:07;;;;;;;9.93;2.45;;;;;;;;;;4928431;29;20036;-74
2023/12/16 04:17:34;;;;;;;12.23;2.90;;;;;;;;;;4922847;29;20040;-74
2023/12/16 04:20:00;;;;;;;17.65;3.72;;;;;;;;;;4916430;29;20076;-75
2023/12/16 04:22:26;;;;;;;12.23;2.97;;;;;;;;;;4917037;29;20488;-75
2023/12/16 04:24:57;;;;;;;14.52;2.72;;;;;;;;;;4904007;29;20035;-74
2023/12/16 04:27:23;;;;;;;11.70;3.10;;;;;;;;;;4922282;29;20055;-75
2023/12/16 04:29:49;;;;;;;12.32;3.10;;;;;;;;;;4919083;29;20043;-75
2023/12/16 04:32:15;;;;;;;11.57;2.92;;;;;;;;;;4919271;29;20126;-75
2023/12/16 04:34:41;;;;;;;14.15;2.78;;;;;;;;;;4934684;29;20519;-79
2023/12/16 04:37:07;;;;;;;19.88;3.50;;;;;;;;;;4924041;29;20048;-79
2023/12/16 04:39:34;;;;;;;17.92;2.78;;;;;;;;;;4903954;29;20039;-79
2023/12/16 04:42:00;;;;;;;20.08;3.50;;;;;;;;;;4915930;29;20416;-79
2023/12/16 04:44:26;;;;;;;18.17;3.10;;;;;;;;;;4901522;29;20146;-80
2023/12/16 04:46:52;;;;;;;14.18;3.78;;;;;;;;;;4911375;29;20043;-80
2023/12/16 04:49:18;;;;;;;15.88;3.35;;;;;;;;;;4934537;29;20124;-79
2023/12/16 04:51:44;;;;;;;18.33;2.92;;;;;;;;;;4903313;29;20051;-79
2023/12/16 04:54:10;;;;;;;14.55;3.05;;;;;;;;;;4927902;29;20044;-79
2023/12/16 04:56:36;;;;;;;19.52;3.22;;;;;;;;;;4907946;29;20040;-79
2023/12/16 04:59:02;;;;;;;18.23;3.38;;;;;;;;;;4918633;29;20122;-79
2023/12/16 05:01:28;;;;;;;18.30;3.05;;;;;;;;;;4921626;29;20471;-79
2023/12/16 05:03:55;;;;;;;14.88;3.30;;;;;;;;;;4925551;29;20055;-79
2023/12/16 05:06:21;;;;;;;12.38;3.35;;;;;;;;;;4932113;29;20052;-80
2023/12/16 05:08:47;;;;;;;18.90;4.35;;;;;;;;;;4920324;29;20514;-79
2023/12/16 05:11:13;;;;;;;10.10;3.03;;;;;;;;;;4915402;28;20058;-79
2023/12/16 05:13:39;;;;;;;22.80;3.60;;;;;;;;;;4937521;29;20042;-79
2023/12/16 05:16:05;;;;;;;9.85;3.25;;;;;;;;;;4921527;29;20558;-80
2023/12/16 05:18:31;;;;;;;15.45;3.25;;;;;;;;;;4937802;29;20167;-79
2023/12/16 05:20:57;;;;;;;18.67;3.25;;;;;;;;;;4918007;29;20064;-80
2023/12/16 05:23:23;;;;;;;19.27;3.63;;;;;;;;;;4903036;29;20226;-79
2023/12/16 05:25:49;;;;;;;28.98;4.32;;;;;;;;;;4905789;28;20035;-79
2023/12/16 05:28:15;;;;;;;15.20;3.30;;;;;;;;;;4937656;29;20503;-80
2023/12/16 05:30:41;;;;;;;13.93;3.67;;;;;;;;;;4936172;29;20054;-80
2023/12/16 05:33:07;;;;;;;20.65;3.85;;;;;;;;;;4903204;29;20130;-79
2023/12/16 05:35:33;;;;;;;17.80;4.00;;;;;;;;;;4932850;29;20051;-79
2023/12/16 05:38:00;;;;;;;20.45;3.97;;;;;;;;;;4902762;29;20102;-79
2023/12/16 05:40:26;;;;;;;20.23;3.75;;;;;;;;;;4892125;29;20486;-79
2023/12/16 05:42:52;;;;;;;21.02;5.53;;;;;;;;;;4935967;29;20111;-79
2023/12/16 05:45:18;;;;;;;15.77;3.92;;;;;;;;;;4933952;29;20036;-79
2023/12/16 05:47:44;;;;;;;22.27;4.88;;;;;;;;;;4902834;29;20047;-80
2023/12/16 05:50:10;;;;;;;18.80;4.65;;;;;;;;;;4903067;29;20039;-79
2023/12/16 05:52:39;;;;;;;18.23;3.83;;;;;;;;;;4905562;29;20399;-79
2023/12/16 05:55:05;;;;;;;21.77;4.35;;;;;;;;;;4903120;29;20051;-79
2023/12/16 05:57:31;;;;;;;17.63;4.93;;;;;;;;;;4903765;29;20102;-79
2023/12/16 05:59:58;;;;;;;18.63;4.47;;;;;;;;;;4902558;29;20046;-79
2023/12/16 06:02:24;;;;;;;14.45;4.20;;;;;;;;;;4915950;28;20102;-79
2023/12/16 06:04:50;;;;;;;16.00;4.82;;;;;;;;;;4934378;29;20119;-79
2023/12/16 06:07:16;;;;;;;19.15;4.28;;;;;;;;;;4903336;29;20098;-79
2023/12/16 06:09:42;;;;;;;19.55;5.13;;;;;;;;;;4929629;29;20047;-79
2023/12/16 06:12:08;;;;;;;17.35;4.82;;;;;;;;;;4891908;29;20087;-79
2023/12/16 06:14:34;;;;;;;22.67;4.93;;;;;;;;;;4926306;29;20054;-79
2023/12/16 06:17:00;;;;;;;17.52;5.22;;;;;;;;;;4940495;29;20055;-79
2023/12/16 06:19:26;;;;;;;19.73;4.55;;;;;;;;;;4922923;29;20040;-79
2023/12/16 06:21:52;;;;;;;23.05;5.20;;;;;;;;;;4928529;29;20075;-79
2023/12/16 06:24:19;;;;;;;26.05;6.75;;;;;;;;;;4940207;29;20094;-79
2023/12/16 06:26:45;;;;;;;20.85;4.63;;;;;;;;;;4940105;29;20567;-80
2023/12/16 06:29:12;;;;;;;19.42;4.75;;;;;;;;;;4908756;29;20043;-79
2023/12/16 06:31:38;;;;;;;30.85;6.60;;;;;;;;;;4940016;29;20043;-81
2023/12/16 06:34:04;;;;;;;20.30;4.97;;;;;;;;;;4938112;29;20051;-80
2023/12/16 06:36:30;;;;;;;24.05;4.50;;;;;;;;;;4921551;29;20130;-80
2023/12/16 06:38:56;;;;;;;23.88;5.40;;;;;;;;;;4938924;28;20039;-80
2023/12/16 06:41:22;;;;;;;26.50;6.05;;;;;;;;;;4937619;29;20476;-80
2023/12/16 06:43:48;;;;;;;21.83;5.65;;;;;;;;;;4936188;29;20035;-80
2023/12/16 06:46:19;;;;;;;25.02;6.30;;;;;;;;;;4940010;29;20039;-80
2023/12/16 06:48:45;;;;;;;24.90;4.90;;;;;;;;;;4926327;29;20181;-80
2023/12/16 06:51:11;;;;;;;30.38;5.97;;;;;;;;;;4920321;29;20523;-80
2023/12/16 06:53:37;;;;;;;22.92;5.47;;;;;;;;;;4925249;29;20484;-80
2023/12/16 06:56:04;;;;;;;21.98;4.55;;;;;;;;;;4924399;29;20075;-79
2023/12/16 06:58:32;;;;;;;26.58;5.65;;;;;;;;;;4923827;29;20541;-81
2023/12/16 07:00:58;;;;;;;22.85;5.25;;;;;;;;;;4905079;29;20036;-82
2023/12/16 07:03:24;;;;;;;29.60;5.82;;;;;;;;;;4922028;29;20051;-80
2023/12/16 07:05:50;;;;;;;21.38;5.10;;;;;;;;;;4931779;29;20117;-80
2023/12/16 07:08:16;;;;;;;24.02;5.15;;;;;;;;;;4920935;29;20048;-81
2023/12/16 07:10:43;;;;;;;26.73;5.47;;;;;;;;;;4936783;29;20047;-80
2023/12/16 07:13:09;;;;;;;25.48;5.30;;;;;;;;;;4930980;29;20045;-80
2023/12/16 07:15:35;;;;;;;23.08;5.43;;;;;;;;;;4899793;29;20047;-80
2023/12/16 07:18:02;;;;;;;23.80;5.50;;;;;;;;;;4928778;29;20054;-81
2023/12/16 07:20:28;;;;;;;26.70;6.18;;;;;;;;;;4914428;29;20126;-81
2023/12/16 07:22:55;;;;;;;19.77;5.53;;;;;;;;;;4933355;29;20119;-70
2023/12/16 07:25:21;;;;;;;28.55;5.93;;;;;;;;;;4953082;29;20048;-81
2023/12/16 07:27:48;;;;;;;24.75;5.20;;;;;;;;;;4931295;29;20559;-80
2023/12/16 07:30:16;;;;;;;29.17;5.97;;;;;;;;;;4939529;29;20047;-81
2023/12/16 07:32:42;;;;;;;28.63;5.20;;;;;;;;;;4937410;29;20043;-81
2023/12/16 07:35:12;;;;;;;32.00;5.70;;;;;;;;;;4929042;29;20047;-81
2023/12/16 07:37:42;;;;;;;30.85;5.60;;;;;;;;;;4928586;29;20098;-81
2023/12/16 07:40:09;;;;;;;29.58;5.50;;;;;;;;;;4917439;29;20472;-80
2023/12/16 07:42:41;;;;;;;28.38;5.63;;;;;;;;;;4932007;29;20452;-81
2023/12/16 07:45:08;;;;;;;25.08;5.25;;;;;;;;;;4912313;29;20392;-81
2023/12/16 07:47:34;;;;;;;30.70;4.57;;;;;;;;;;4925779;28;20043;-81
2023/12/16 07:50:01;;;;;;;27.42;6.18;;;;;;;;;;4937583;29;20097;-81
2023/12/16 07:52:27;;;;;;;29.63;4.72;;;;;;;;;;4924390;29;20075;-82
2023/12/16 07:54:53;;;;;;;21.55;5.13;;;;;;;;;;4917120;29;20501;-81
2023/12/16 07:57:20;;;;;;;32.60;4.95;;;;;;;;;;4914478;29;20040;-81
2023/12/16 07:59:46;;;;;;;30.75;5.10;;;;;;;;;;4936225;29;20047;-80
2023/12/16 08:02:12;;;;;;;23.17;6.30;;;;;;;;;;4900262;29;20377;-73
2023/12/16 08:04:39;;;;;;;25.50;4.57;;;;;;;;;;4925300;29;20124;-74
2023/12/16 08:07:07;;;;;;;27.45;5.53;;;;;;;;;;4893166;29;20463;-73
2023/12/16 08:09:33;;;;;;;27.08;4.82;;;;;;;;;;4918833;29;20052;-74
2023/12/16 08:11:59;;;;;;;25.38;4.78;;;;;;;;;;4918906;29;20051;-74
2023/12/16 08:14:25;;;;;;;26.98;5.50;;;;;;;;;;4904002;29;20059;-74
2023/12/16 08:16:51;;;;;;;29.20;5.93;;;;;;;;;;4918764;29;20050;-74
2023/12/16 08:19:17;;;;;;;23.98;4.72;;;;;;;;;;4903615;29;20134;-74
2023/12/16 08:21:44;;;;;;;30.52;5.13;;;;;;;;;;4903763;29;20055;-74
2023/12/16 08:24:10;;;;;;;23.23;5.65;;;;;;;;;;4928616;29;20078;-74
2023/12/16 08:26:36;;;;;;;19.13;4.70;;;;;;;;;;4938165;29;20047;-74
2023/12/16 08:29:02;;;;;;;32.05;5.30;;;;;;;;;;4922693;28;20054;-74
2023/12/16 08:31:28;;;;;;;31.83;5.30;;;;;;;;;;4938727;29;20143;-73
2023/12/16 08:33:55;;;;;;;25.48;4.78;;;;;;;;;;4938466;29;20089;-73
2023/12/16 08:36:21;;;;;;;15.93;4.93;;;;;;;;;;4922534;29;20300;-73
2023/12/16 08:38:47;;;;;;;24.30;4.72;;;;;;;;;;4922418;29;20045;-73
2023/12/16 08:41:14;;;;;;;25.92;5.00;;;;;;;;;;4938202;29;20039;-74
2023/12/16 08:43:42;;;;;;;30.33;6.40;;;;;;;;;;4938192;28;20035;-74
2023/12/16 08:46:08;;;;;;;26.30;4.82;;;;;;;;;;4938434;29;20078;-73
2023/12/16 08:48:35;;;;;;;21.52;5.20;;;;;;;;;;4922379;29;20035;-74
2023/12/16 08:51:01;;;;;;;25.30;5.43;;;;;;;;;;4938226;29;20042;-73
2023/12/16 08:53:27;;;;;;;23.70;5.13;;;;;;;;;;4938039;29;20086;-74
2023/12/16 08:55:53;;;;;;;30.67;7.05;;;;;;;;;;4938170;29;20466;-74
2023/12/16 08:58:21;;;;;;;35.40;5.47;;;;;;;;;;4937785;28;20043;-74
2023/12/16 09:00:48;;;;;;;28.63;4.50;;;;;;;;;;4938154;29;20098;-73
2023/12/16 09:03:14;;;;;;;20.83;4.60;;;;;;;;;;4921907;29;20058;-74
2023/12/16 09:05:41;;;;;;;31.05;6.22;;;;;;;;;;4937991;29;20047;-74
2023/12/16 09:08:07;;;;;;;31.75;4.50;;;;;;;;;;4906629;29;20047;-74
2023/12/16 09:10:33;;;;;;;27.63;5.88;;;;;;;;;;4937739;29;20478;-74
2023/12/16 09:12:59;;;;;;;30.67;5.45;;;;;;;;;;4930277;29;20071;-74
2023/12/16 09:15:25;;;;;;;29.67;4.85;;;;;;;;;;4936690;29;20355;-74
2023/12/16 09:17:52;;;;;;;24.83;4.90;;;;;;;;;;4934155;29;20047;-73
2023/12/16 09:20:18;;;;;;;25.45;5.13;;;;;;;;;;4924192;29;20075;-73
2023/12/16 09:22:44;;;;;;;21.23;5.68;;;;;;;;;;4937717;29;20039;-74
2023/12/16 09:25:10;;;;;;;32.90;5.13;;;;;;;;;;4921885;29;20039;-74
2023/12/16 09:27:36;;;;;;;31.38;4.85;;;;;;;;;;4938944;29;20531;-73
2023/12/16 09:30:02;;;;;;;33.15;5.03;;;;;;;;;;4937423;29;20047;-74
2023/12/16 09:32:29;;;;;;;24.35;4.80;;;;;;;;;;4921770;29;20125;-74
2023/12/16 09:34:56;;;;;;;32.92;5.28;;;;;;;;;;4937567;29;20054;-74
2023/12/16 09:37:22;;;;;;;20.77;5.40;;;;;;;;;;4937424;28;20059;-74
2023/12/16 09:39:48;;;;;;;30.02;6.63;;;;;;;;;;4940553;29;20043;-74
2023/12/16 09:42:14;;;;;;;27.33;6.10;;;;;;;;;;4909736;29;20039;-74
2023/12/16 09:44:41;;;;;;;26.92;5.63;;;;;;;;;;4906702;29;20040;-74
2023/12/16 09:47:11;;;;;;;34.95;5.82;;;;;;;;;;4906539;29;20124;-74
2023/12/16 09:49:38;;;;;;;23.40;5.75;;;;;;;;;;4922498;29;20488;-74
2023/12/16 09:52:04;;;;;;;22.85;6.00;;;;;;;;;;4922272;29;20055;-74
2023/12/16 09:54:31;;;;;;;28.65;5.55;;;;;;;;;;4922309;29;20069;-74
2023/12/16 09:56:57;;;;;;;28.95;6.88;;;;;;;;;;4890904;29;20199;-74
2023/12/16 09:59:24;;;;;;;24.10;6.15;;;;;;;;;;4927849;28;20566;-74
2023/12/16 10:01:53;;;;;;;23.17;6.60;;;;;;;;;;4908492;29;20551;-74
2023/12/16 10:04:21;;;;;;;26.50;6.63;;;;;;;;;;4922123;29;20047;-74
2023/12/16 10:06:47;;;;;;;22.30;6.35;;;;;;;;;;4922006;29;20091;-74
2023/12/16 10:09:13;;;;;;;23.80;6.72;;;;;;;;;;4921846;29;20131;-74
2023/12/16 10:11:40;;;;;;;21.42;6.40;;;;;;;;;;4906248;29;20043;-74
2023/12/16 10:14:06;;;;;;;23.52;6.43;;;;;;;;;;4906183;29;20559;-80
2023/12/16 10:16:32;;;;;;;22.45;6.88;;;;;;;;;;4922042;29;20500;-81
2023/12/16 10:18:58;;;;;;;20.80;6.47;;;;;;;;;;4906436;29;20044;-80
2023/12/16 10:21:34;;;;;;;24.88;6.20;;;;;;;;;;4890977;29;20035;-81
2023/12/16 10:24:00;;;;;;;22.75;6.10;;;;;;;;;;4922065;29;20054;-80
2023/12/16 10:26:36;;;;;;;19.13;6.72;;;;;;;;;;4906258;29;20051;-80
2023/12/16 10:29:06;;;;;;;12.05;5.22;;;;;;;;;;4921624;29;20043;-80
2023/12/16 10:31:32;;;;;;;23.65;6.20;;;;;;;;;;4906891;29;20452;-80
2023/12/16 10:34:01;;;;;;;19.30;6.43;;;;;;;;;;4890900;29;20043;-80
2023/12/16 10:36:28;;;;;;;16.17;6.25;;;;;;;;;;4906410;29;20515;-80
2023/12/16 10:38:54;;;;;;;26.27;7.28;;;;;;;;;;4921778;29;20079;-80
2023/12/16 10:41:23;;;;;;;24.77;6.40;;;;;;;;;;4906084;29;20046;-79
2023/12/16 10:43:49;;;;;;;22.50;5.97;;;;;;;;;;4906275;29;20051;-80
2023/12/16 10:46:20;;;;;;;24.63;6.88;;;;;;;;;;4924806;29;20044;-80
2023/12/16 10:48:47;;;;;;;15.63;6.47;;;;;;;;;;4905650;29;20036;-80
2023/12/16 10:51:15;;;;;;;22.23;6.80;;;;;;;;;;4921630;29;20534;-80
2023/12/16 10:53:46;;;;;;;20.27;6.70;;;;;;;;;;4921525;29;20044;-80
2023/12/16 10:56:16;;;;;;;25.35;6.90;;;;;;;;;;4921277;29;20067;-80
2023/12/16 10:58:55;;;;;;;26.25;8.02;;;;;;;;;;4921342;29;20491;-81
2023/12/16 11:01:23;;;;;;;15.40;7.40;;;;;;;;;;4905754;29;20040;-80
2023/12/16 11:04:18;;;;;;;23.05;6.97;;;;;;;;;;4890187;29;20044;-80
2023/12/16 11:07:00;;;;;;;24.30;7.15;;;;;;;;;;4913488;29;20062;-80
2023/12/16 11:09:26;;;;;;;20.55;6.85;;;;;;;;;;4921324;29;20039;-80
2023/12/16 11:11:56;;;;;;;15.40;6.35;;;;;;;;;;4905672;29;20082;-80
2023/12/16 11:14:22;;;;;;;19.48;6.35;;;;;;;;;;4905595;29;20527;-80
2023/12/16 11:16:57;;;;;;;14.80;5.60;;;;;;;;;;4921086;29;20058;-80
2023/12/16 11:19:26;;;;;;;16.33;6.00;;;;;;;;;;4921125;29;20075;-81
2023/12/16 11:21:52;;;;;;;19.73;6.18;;;;;;;;;;4920952;29;20047;-80
2023/12/16 11:24:18;;;;;;;16.48;5.45;;;;;;;;;;4920864;29;20040;-80
2023/12/16 11:26:49;;;;;;;13.95;5.95;;;;;;;;;;4905249;29;20044;-80
2023/12/16 11:29:15;;;;;;;12.68;6.10;;;;;;;;;;4920723;29;20388;-80
2023/12/16 11:31:41;;;;;;;17.58;5.88;;;;;;;;;;4905447;29;20393;-80
2023/12/16 11:34:07;;;;;;;13.93;5.82;;;;;;;;;;4920752;29;20522;-80
2023/12/16 11:36:56;;;;;;;12.27;5.40;;;;;;;;;;4904900;29;20523;-80
2023/12/16 11:39:37;;;;;;;17.67;5.47;;;;;;;;;;4920786;29;20612;-80
2023/12/16 11:42:03;;;;;;;16.80;5.90;;;;;;;;;;4905231;29;20047;-74
2023/12/16 11:44:48;;;;;;;14.38;5.53;;;;;;;;;;4920462;29;20122;-74
2023/12/16 11:47:18;;;;;;;14.48;4.97;;;;;;;;;;4904551;29;20048;-74
2023/12/16 11:49:44;;;;;;;16.25;5.68;;;;;;;;;;4904456;29;20050;-73
2023/12/16 11:52:10;;;;;;;13.70;5.50;;;;;;;;;;4919969;29;20051;-74
2023/12/16 11:54:36;;;;;;;17.85;6.07;;;;;;;;;;4919919;29;20051;-74
2023/12/16 11:57:03;;;;;;;20.30;5.45;;;;;;;;;;4920110;29;20059;-74
2023/12/16 11:59:29;;;;;;;11.60;5.60;;;;;;;;;;4919693;29;20040;-74
2023/12/16 12:01:55;;;;;;;16.63;5.20;;;;;;;;;;4903440;29;20118;-74
2023/12/16 12:04:21;;;;;;;18.98;6.35;;;;;;;;;;4919971;29;20098;-74
2023/12/16 12:06:47;;;;;;;14.30;6.43;;;;;;;;;;4904138;29;20054;-74
2023/12/16 12:09:13;;;;;;;14.07;5.38;;;;;;;;;;4919905;29;20048;-74
2023/12/16 12:11:39;;;;;;;18.52;5.55;;;;;;;;;;4919826;29;20047;-74
2023/12/16 12:14:05;;;;;;;18.98;5.28;;;;;;;;;;4920192;29;20063;-74
2023/12/16 12:16:31;;;;;;;15.63;5.38;;;;;;;;;;4920975;29;20150;-74
2023/12/16 12:18:57;;;;;;;22.17;5.70;;;;;;;;;;4920203;29;20044;-74
2023/12/16 12:21:24;;;;;;;12.45;5.00;;;;;;;;;;4904503;29;20066;-73
2023/12/16 12:23:50;;;;;;;14.85;6.80;;;;;;;;;;4922945;29;20753;-74
2023/12/16 12:26:20;;;;;;;17.05;5.75;;;;;;;;;;4920099;29;20110;-74
2023/12/16 12:28:59;;;;;;;12.02;5.97;;;;;;;;;;4919739;29;20444;-74
2023/12/16 12:31:28;;;;;;;17.63;6.25;;;;;;;;;;4919594;29;20131;-74
2023/12/16 12:33:54;;;;;;;14.02;5.78;;;;;;;;;;4919366;29;20067;-74
2023/12/16 12:36:20;;;;;;;16.75;5.55;;;;;;;;;;4903606;29;20044;-74
2023/12/16 12:38:52;;;;;;;12.05;5.20;;;;;;;;;;4904078;29;20043;-74
2023/12/16 12:41:18;;;;;;;;;;;;;;;;;;4919644;29;20032;-74
2023/12/16 12:43:44;;;;;;;26.50;5.10;;;;;;;;;;4903724;29;19945;-74
2023/12/16 12:46:12;;;;;;;10.45;4.90;;;;;;;;;;4903780;29;20040;-74
2023/12/16 12:48:40;;;;;;;13.90;4.97;;;;;;;;;;4903675;29;20392;-74
2023/12/16 12:51:06;;;;;;;12.75;4.80;;;;;;;;;;4903605;29;20078;-74
2023/12/16 12:53:33;;;;;;;11.00;4.53;;;;;;;;;;4918980;29;20495;-74
2023/12/16 12:55:59;;;;;;;12.65;4.60;;;;;;;;;;4918995;29;20047;-74
2023/12/16 12:58:26;;;;;;;12.65;5.32;;;;;;;;;;4918823;29;20044;-74
2023/12/16 13:00:52;;;;;;;15.23;4.25;;;;;;;;;;4919078;29;20066;-74
2023/12/16 13:03:18;;;;;;;13.55;4.82;;;;;;;;;;4915665;29;20052;-74
2023/12/16 13:05:44;;;;;;;15.10;4.93;;;;;;;;;;4899953;29;20052;-74
2023/12/16 13:08:11;;;;;;;15.88;5.03;;;;;;;;;;4915663;29;20131;-74
2023/12/16 13:10:40;;;;;;;19.17;4.95;;;;;;;;;;4900041;29;20512;-73
2023/12/16 13:13:07;;;;;;;14.52;4.40;;;;;;;;;;4884429;29;20044;-74
2023/12/16 13:15:33;;;;;;;10.40;4.72;;;;;;;;;;4899979;29;20039;-74
2023/12/16 13:17:59;;;;;;;16.50;5.22;;;;;;;;;;4915544;29;20445;-74
2023/12/16 13:20:27;;;;;;;17.50;5.10;;;;;;;;;;4900044;29;20126;-74
2023/12/16 13:22:53;;;;;;;11.68;4.90;;;;;;;;;;4899838;29;20048;-74
2023/12/16 13:25:19;;;;;;;11.50;4.63;;;;;;;;;;4884299;29;20087;-74
2023/12/16 13:27:45;;;;;;;24.58;5.55;;;;;;;;;;4899855;29;20134;-74
2023/12/16 13:30:12;;;;;;;11.70;4.68;;;;;;;;;;4915269;29;20496;-74
2023/12/16 13:32:40;;;;;;;14.60;5.68;;;;;;;;;;4915407;29;20048;-73
2023/12/16 13:35:06;;;;;;;11.55;5.07;;;;;;;;;;4915266;29;20059;-74
2023/12/16 13:37:32;;;;;;;15.77;5.03;;;;;;;;;;4883992;29;20497;-74
2023/12/16 13:39:59;;;;;;;14.52;4.32;;;;;;;;;;4915258;29;20044;-74
2023/12/16 13:42:25;;;;;;;10.98;4.38;;;;;;;;;;4915517;29;20062;-74
2023/12/16 13:44:51;;;;;;;10.75;4.40;;;;;;;;;;4899569;29;20047;-74
2023/12/16 13:47:18;;;;;;;15.18;4.65;;;;;;;;;;4915623;29;20441;-74
2023/12/16 13:49:45;;;;;;;13.20;4.95;;;;;;;;;;4915647;29;20441;-74
2023/12/16 13:52:11;;;;;;;13.45;4.57;;;;;;;;;;4884037;29;20052;-74
2023/12/16 13:54:38;;;;;;;14.15;4.75;;;;;;;;;;4899585;29;20563;-74
2023/12/16 13:57:04;;;;;;;11.38;4.85;;;;;;;;;;4915170;29;20059;-74
2023/12/16 13:59:33;;;;;;;15.45;4.45;;;;;;;;;;4899494;29;20464;-73
2023/12/16 14:01:59;;;;;;;11.50;4.53;;;;;;;;;;4902351;29;20072;-74
2023/12/16 14:04:25;;;;;;;9.98;4.70;;;;;;;;;;4918187;29;20054;-74
2023/12/16 14:06:51;;;;;;;11.20;4.05;;;;;;;;;;4918322;29;20114;-80
2023/12/16 14:09:17;;;;;;;12.90;4.68;;;;;;;;;;4902946;29;20059;-80
2023/12/16 14:11:44;;;;;;;15.50;4.57;;;;;;;;;;4918467;29;20039;-80
2023/12/16 14:14:10;;;;;;;11.52;4.88;;;;;;;;;;4918697;29;20083;-80
2023/12/16 14:16:36;;;;;;;9.45;3.95;;;;;;;;;;4918280;29;20050;-80
2023/12/16 14:19:02;;;;;;;12.20;4.82;;;;;;;;;;4902632;29;20047;-80
2023/12/16 14:21:28;;;;;;;14.25;4.55;;;;;;;;;;4902608;29;20059;-79
2023/12/16 14:23:54;;;;;;;8.77;4.32;;;;;;;;;;4918315;29;20050;-80
2023/12/16 14:26:20;;;;;;;10.85;4.70;;;;;;;;;;4906768;29;20038;-80
2023/12/16 14:28:47;;;;;;;18.95;4.35;;;;;;;;;;4939679;29;20120;-79
2023/12/16 14:31:13;;;;;;;7.43;4.20;;;;;;;;;;4940287;29;20099;-79